Time;durP1;ratioP1;P1;durP2;ratioP2;P2;SDS_P1;SDS_P2;PMS_P1;PMS_P2;Temp;Humidity;BMP_temperature;BMP_pressure;BME280_temperature;BME280_humidity;BME280_pressure;Samples;Min_cycle;Max_cycle;Signal;HPM_P1;HPM_P2
2023/04/12 00:01:43;;;;;;;7.60;5.80;;;;;;;10.55;70.75;95782.81;5089955;28;20626;-85
2023/04/12 00:04:13;;;;;;;8.37;6.23;;;;;;;10.56;70.27;95776.69;5105499;28;20637;-86
2023/04/12 00:06:41;;;;;;;6.97;5.80;;;;;;;10.67;69.17;95771.66;5089736;28;20311;-82
2023/04/12 00:09:08;;;;;;;7.47;5.67;;;;;;;10.66;68.78;95764.78;5090195;28;20245;-84
2023/04/12 00:11:35;;;;;;;8.80;6.17;;;;;;;10.62;68.45;95755.56;5055011;28;20283;-85
2023/04/12 00:14:02;;;;;;;7.03;6.27;;;;;;;10.79;68.37;95775.16;5089407;28;20671;-79
2023/04/12 00:16:29;;;;;;;8.00;6.50;;;;;;;10.67;69.14;95763.88;5089612;28;20193;-80
2023/04/12 00:18:56;;;;;;;9.10;6.97;;;;;;;10.74;68.99;95785.03;5090334;28;20182;-85
2023/04/12 00:21:27;;;;;;;6.93;6.23;;;;;;;10.68;69.95;95768.13;5072978;28;20676;-82
2023/04/12 00:23:55;;;;;;;7.90;6.57;;;;;;;10.59;70.13;95758.38;5090007;28;20242;-78
2023/04/12 00:26:24;;;;;;;8.70;6.80;;;;;;;10.56;69.39;95761.16;5088646;28;20235;-81
2023/04/12 00:28:51;;;;;;;8.03;6.43;;;;;;;10.71;69.11;95767.09;5090259;28;20283;-85
2023/04/12 00:31:18;;;;;;;8.53;6.27;;;;;;;10.72;69.20;95763.56;5071527;28;20189;-82
2023/04/12 00:33:45;;;;;;;8.80;6.40;;;;;;;10.71;69.24;95761.91;5090109;28;20200;-81
2023/04/12 00:36:12;;;;;;;9.37;6.70;;;;;;;10.70;69.81;95766.25;5072171;28;20246;-80
2023/04/12 00:38:41;;;;;;;8.10;6.53;;;;;;;10.67;70.20;95761.28;5095237;28;20188;-81
2023/04/12 00:41:08;;;;;;;8.40;6.53;;;;;;;10.61;70.34;95753.94;5091890;28;20258;-87
2023/04/12 00:43:35;;;;;;;7.90;6.47;;;;;;;10.71;69.76;95761.91;5089986;28;20212;-85
2023/04/12 00:46:02;;;;;;;9.00;6.53;;;;;;;10.75;69.61;95766.78;5071108;28;20217;-87
2023/04/12 00:48:30;;;;;;;8.43;6.37;;;;;;;10.75;68.91;95753.00;5090996;28;20288;-88
2023/04/12 00:50:57;;;;;;;9.43;7.17;;;;;;;10.83;68.84;95767.09;5090751;28;20231;-80
2023/04/12 00:53:24;;;;;;;8.53;6.40;;;;;;;10.83;69.14;95768.84;5089559;28;20224;-83
2023/04/12 00:55:51;;;;;;;9.10;6.30;;;;;;;10.85;68.37;95764.41;5071883;28;20847;-85
2023/04/12 00:58:25;;;;;;;9.20;6.47;;;;;;;10.77;68.72;95751.13;5092514;28;20592;-74
2023/04/12 01:00:53;;;;;;;8.43;6.40;;;;;;;10.84;68.63;95760.16;5090759;28;20203;-88
2023/04/12 01:03:22;;;;;;;8.30;6.57;;;;;;;10.88;68.65;95765.00;5071770;28;20181;-81
2023/04/12 01:06:12;;;;;;;8.43;5.90;;;;;;;10.87;68.77;95767.72;5078163;28;20222;-77
2023/04/12 01:08:56;;;;;;;7.27;5.87;;;;;;;10.83;69.18;95761.09;5094533;28;20216;-84
2023/04/12 01:11:34;;;;;;;7.37;5.60;;;;;;;10.71;69.18;95742.03;5065933;28;20193;-81
2023/04/12 01:14:10;;;;;;;6.53;5.17;;;;;;;10.48;68.84;95698.72;5074018;28;20223;-80
2023/04/12 01:16:44;;;;;;;7.40;5.80;;;;;;;10.79;68.89;95741.50;5073150;28;20204;-80
2023/04/12 01:19:35;;;;;;;8.23;6.37;;;;;;;10.81;68.73;95737.88;5071007;28;20196;-78
2023/04/12 01:22:06;;;;;;;7.73;5.77;;;;;;;10.84;69.11;95748.03;5070384;28;20217;-80
2023/04/12 01:25:11;;;;;;;8.00;6.07;;;;;;;10.83;69.29;95741.19;5070487;28;20743;-84
2023/04/12 01:27:44;;;;;;;6.73;5.33;;;;;;;10.81;68.63;95737.88;5071166;28;20188;-79
2023/04/12 01:30:15;;;;;;;7.70;5.67;;;;;;;10.45;68.81;95686.81;5070480;28;20188;-81
2023/04/12 01:32:50;;;;;;;6.73;5.20;;;;;;;10.71;68.68;95713.56;5088699;28;20570;-82
2023/04/12 01:35:20;;;;;;;7.40;5.80;;;;;;;10.62;69.48;95711.56;5070840;28;20645;-82
2023/04/12 01:37:47;;;;;;;6.80;5.87;;;;;;;10.75;69.47;95724.53;5088732;28;20202;-85
2023/04/12 01:40:17;;;;;;;8.27;5.73;;;;;;;10.75;69.59;95724.53;5070586;28;20276;-79
2023/04/12 01:42:44;;;;;;;8.00;6.13;;;;;;;10.73;68.98;95714.28;5088249;28;20586;-82
2023/04/12 01:45:11;;;;;;;7.97;5.63;;;;;;;10.80;69.51;95725.84;5069952;28;20197;-80
2023/04/12 01:47:38;;;;;;;6.97;5.50;;;;;;;10.71;69.47;95721.31;5087987;28;20217;-83
2023/04/12 01:50:34;;;;;;;7.77;5.77;;;;;;;10.82;69.54;95724.00;5053407;28;20201;-77
2023/04/12 01:53:25;;;;;;;8.13;5.77;;;;;;;10.78;69.16;95725.13;5088327;28;20251;-79
2023/04/12 01:55:58;;;;;;;7.40;5.60;;;;;;;10.76;69.42;95719.22;5087970;28;20257;-79
2023/04/12 01:58:26;;;;;;;8.83;6.20;;;;;;;10.80;68.76;95718.09;5052941;28;20190;-79
2023/04/12 02:01:33;;;;;;;7.43;5.60;;;;;;;10.77;68.71;95718.31;5052677;28;20741;-76
2023/04/12 02:04:30;;;;;;;7.00;5.70;;;;;;;10.82;69.08;95716.22;5068689;28;20304;-82
2023/04/12 02:06:57;;;;;;;7.07;5.40;;;;;;;10.84;68.23;95719.53;5069747;28;20250;-79
2023/04/12 02:09:24;;;;;;;8.43;6.30;;;;;;;10.86;68.03;95712.50;5069526;28;20197;-75
2023/04/12 02:11:52;;;;;;;7.70;5.60;;;;;;;10.84;68.32;95706.59;5068306;28;20213;-73
2023/04/12 02:14:19;;;;;;;7.60;5.50;;;;;;;10.69;67.86;95680.91;5079947;28;20834;-79
2023/04/12 02:16:46;;;;;;;8.43;5.50;;;;;;;10.91;67.12;95705.25;5068794;28;20683;-75
2023/04/12 02:19:13;;;;;;;6.87;5.27;;;;;;;10.90;66.26;95695.81;5067421;28;20712;-73
2023/04/12 02:21:43;;;;;;;8.03;5.17;;;;;;;11.03;65.90;95704.41;5048961;28;20229;-80
2023/04/12 02:24:11;;;;;;;7.07;5.53;;;;;;;11.03;66.56;95696.63;5067793;28;20185;-79
2023/04/12 02:26:38;;;;;;;9.20;5.60;;;;;;;11.06;65.70;95691.25;5066996;28;20732;-83
2023/04/12 02:29:08;;;;;;;6.27;4.80;;;;;;;10.69;65.13;95635.16;5049299;28;20183;-75
2023/04/12 02:31:37;;;;;;;6.20;5.17;;;;;;;11.16;64.87;95701.81;5049235;28;20194;-78
2023/04/12 02:34:08;;;;;;;6.60;5.07;;;;;;;11.06;65.37;95685.25;5067033;28;20188;-81
2023/04/12 02:36:37;;;;;;;5.73;4.37;;;;;;;11.17;64.68;95693.91;5049417;28;20185;-82
2023/04/12 02:39:05;;;;;;;6.17;5.07;;;;;;;11.31;64.07;95690.38;5049214;28;20280;-79
2023/04/12 02:41:33;;;;;;;7.73;5.23;;;;;;;11.24;63.68;95715.88;5032421;28;20220;-76
2023/04/12 02:44:01;;;;;;;8.60;5.57;;;;;;;11.24;63.99;95700.34;5048628;28;20202;-82
2023/04/12 02:46:28;;;;;;;7.77;5.17;;;;;;;11.27;64.72;95710.47;5048977;28;20219;-80
2023/04/12 02:48:57;;;;;;;7.50;4.90;;;;;;;11.17;64.83;95699.09;5032425;28;20181;-76
2023/04/12 02:51:33;;;;;;;7.33;4.77;;;;;;;11.17;64.54;95706.88;5049243;28;20215;-78
2023/04/12 02:54:01;;;;;;;6.10;4.80;;;;;;;11.20;64.91;95704.09;5049359;28;20216;-83
2023/04/12 02:56:38;;;;;;;6.83;4.93;;;;;;;11.16;64.68;95692.28;5049150;28;20188;-81
2023/04/12 02:59:24;;;;;;;5.77;4.30;;;;;;;11.25;64.78;95708.94;5032514;28;20200;-75
2023/04/12 03:02:20;;;;;;;7.63;5.07;;;;;;;11.20;65.02;95704.09;5050098;28;20209;-80
2023/04/12 03:04:49;;;;;;;6.80;4.90;;;;;;;11.23;64.60;95708.22;5049650;28;20224;-80
2023/04/12 03:07:21;;;;;;;5.97;4.90;;;;;;;11.17;65.04;95701.69;5045535;28;20239;-75
2023/04/12 03:09:50;;;;;;;5.53;4.70;;;;;;;11.16;65.33;95701.81;5062082;28;20576;-84
2023/04/12 03:12:19;;;;;;;6.90;5.03;;;;;;;10.95;64.38;95677.38;5050832;28;20185;-84
2023/04/12 03:15:10;;;;;;;5.97;4.77;;;;;;;11.13;64.65;95700.25;5077027;28;20273;-84
2023/04/12 03:17:37;;;;;;;7.10;4.80;;;;;;;11.09;65.02;95690.19;5085671;28;20202;-78
2023/04/12 03:20:08;;;;;;;6.37;5.63;;;;;;;11.08;65.33;95698.91;5089736;28;20194;-83
2023/04/12 03:22:38;;;;;;;7.37;4.77;;;;;;;11.12;65.36;95708.97;5053258;28;20291;-80
2023/04/12 03:25:08;;;;;;;7.33;4.87;;;;;;;11.10;64.55;95695.28;5069090;28;20191;-81
2023/04/12 03:27:40;;;;;;;5.73;4.50;;;;;;;11.16;64.69;95706.97;5069763;28;20224;-77
2023/04/12 03:30:09;;;;;;;7.87;4.90;;;;;;;11.08;64.70;95699.75;5092849;28;20189;-79
2023/04/12 03:32:38;;;;;;;6.07;4.73;;;;;;;11.06;65.13;95703.38;5077119;28;20193;-84
2023/04/12 03:35:09;;;;;;;6.67;5.20;;;;;;;11.09;64.88;95706.56;5072213;28;20185;-79
2023/04/12 03:37:40;;;;;;;6.07;4.83;;;;;;;11.11;65.24;95704.72;5072368;28;20222;-81
2023/04/12 03:40:09;;;;;;;8.80;5.70;;;;;;;11.13;64.70;95708.03;5067043;28;20276;-74
2023/04/12 03:42:40;;;;;;;6.53;5.07;;;;;;;11.09;65.06;95701.38;5049385;28;20185;-83
2023/04/12 03:45:11;;;;;;;6.67;4.77;;;;;;;11.20;64.41;95709.25;5051252;28;20311;-82
2023/04/12 03:47:41;;;;;;;8.50;4.67;;;;;;;11.19;64.90;95711.97;5065641;28;20237;-81
2023/04/12 03:50:10;;;;;;;6.43;4.77;;;;;;;11.05;64.87;95699.94;5068894;28;20224;-82
2023/04/12 03:52:43;;;;;;;5.53;4.80;;;;;;;11.12;65.09;95727.09;5068510;28;20303;-82
2023/04/12 03:55:12;;;;;;;6.80;4.80;;;;;;;11.08;64.64;95723.06;5068309;28;20188;-81
2023/04/12 03:57:41;;;;;;;6.73;4.80;;;;;;;11.09;64.08;95723.88;5068020;28;20615;-84
2023/04/12 04:00:10;;;;;;;5.77;4.67;;;;;;;11.04;64.66;95724.22;5068335;28;20203;-77
2023/04/12 04:03:02;;;;;;;6.53;5.30;;;;;;;11.15;64.08;95732.06;5089017;28;20267;-82
2023/04/12 04:05:35;;;;;;;6.50;4.83;;;;;;;11.19;64.64;95745.66;5064795;28;20280;-83
2023/04/12 04:08:05;;;;;;;8.67;4.97;;;;;;;11.14;64.59;95725.22;5071241;28;20212;-84
2023/04/12 04:10:45;;;;;;;7.30;5.23;;;;;;;11.18;65.25;95743.97;5069850;28;20212;-80
2023/04/12 04:13:12;;;;;;;5.83;4.43;;;;;;;11.02;64.67;95714.88;5070841;28;20184;-76
2023/04/12 04:15:39;;;;;;;5.97;4.90;;;;;;;11.16;64.73;95736.31;5054460;28;20198;-84
2023/04/12 04:18:08;;;;;;;7.83;4.60;;;;;;;11.31;64.58;95758.56;5071693;28;20675;-80
2023/04/12 04:20:36;;;;;;;6.00;4.67;;;;;;;11.15;64.73;95737.25;5052519;28;20197;-85
2023/04/12 04:23:04;;;;;;;6.33;5.60;;;;;;;11.27;65.17;95746.75;5071188;28;20232;-84
2023/04/12 04:25:32;;;;;;;5.63;4.63;;;;;;;11.23;64.37;95737.53;5071912;28;20291;-81
2023/04/12 04:28:04;;;;;;;7.77;4.87;;;;;;;11.34;64.30;95765.31;5071209;28;20217;-81
2023/04/12 04:30:32;;;;;;;8.97;5.30;;;;;;;11.35;64.17;95767.78;5071276;28;20204;-84
2023/04/12 04:33:01;;;;;;;7.93;6.00;;;;;;;11.41;63.91;95763.97;5071528;28;20265;-83
2023/04/12 04:35:30;;;;;;;8.60;5.37;;;;;;;11.20;63.94;95761.09;5071436;28;20208;-83
2023/04/12 04:38:14;;;;;;;10.17;4.57;;;;;;;11.25;63.75;95769.34;5071142;28;20595;-81
2023/04/12 04:40:42;;;;;;;5.93;4.80;;;;;;;11.28;64.07;95774.34;5054675;28;20193;-78
2023/04/12 04:43:12;;;;;;;4.97;4.47;;;;;;;11.26;63.08;95773.63;5070960;28;20185;-83
2023/04/12 04:45:41;;;;;;;9.13;5.43;;;;;;;11.34;63.65;95763.56;5070958;28;20238;-82
2023/04/12 04:48:28;;;;;;;8.83;5.10;;;;;;;11.29;63.83;95764.81;5070624;28;20298;-83
2023/04/12 04:50:56;;;;;;;10.00;6.50;;;;;;;11.36;63.18;95771.22;5089383;28;20246;-84
2023/04/12 04:53:23;;;;;;;6.80;5.27;;;;;;;11.37;62.49;95771.09;5089276;28;20189;-77
2023/04/12 04:55:57;;;;;;;7.70;5.20;;;;;;;11.42;62.79;95760.41;5071150;28;20185;-82
2023/04/12 04:58:26;;;;;;;11.87;6.57;;;;;;;11.48;63.19;95760.00;5070563;28;20832;-79
2023/04/12 05:00:56;;;;;;;7.70;4.80;;;;;;;11.48;62.46;95757.41;5070687;28;20215;-81
2023/04/12 05:03:28;;;;;;;12.77;5.23;;;;;;;11.53;63.06;95762.28;5071480;28;20246;-73
2023/04/12 05:05:58;;;;;;;8.53;5.27;;;;;;;11.51;62.88;95762.38;5071633;28;20270;-82
2023/04/12 05:08:25;;;;;;;5.43;4.73;;;;;;;11.43;62.70;95742.19;5090127;28;20218;-86
2023/04/12 05:10:54;;;;;;;7.77;5.10;;;;;;;11.52;62.94;95745.88;5092720;28;20190;-80
2023/04/12 05:13:24;;;;;;;7.00;5.20;;;;;;;11.59;63.83;95767.03;5090051;28;20774;-78
2023/04/12 05:15:51;;;;;;;6.57;5.13;;;;;;;11.48;64.39;95768.59;5072552;28;20269;-86
2023/04/12 05:18:19;;;;;;;14.57;9.07;;;;;;;11.51;65.04;95764.13;5071025;28;20189;-82
2023/04/12 05:20:47;;;;;;;7.53;5.47;;;;;;;11.46;65.23;95777.41;5071188;28;20190;-83
2023/04/12 05:23:14;;;;;;;8.03;5.30;;;;;;;11.50;64.94;95768.50;5069993;28;20228;-80
2023/04/12 05:25:46;;;;;;;11.20;6.80;;;;;;;11.41;65.56;95751.84;5088905;28;20200;-85
2023/04/12 05:28:16;;;;;;;6.77;5.07;;;;;;;11.43;65.35;95767.28;5089463;28;20248;-86
2023/04/12 05:30:43;;;;;;;7.80;5.00;;;;;;;11.38;65.91;95770.19;5072590;28;20191;-85
2023/04/12 05:33:14;;;;;;;8.37;5.87;;;;;;;11.40;66.38;95760.53;5070681;28;20186;-83
2023/04/12 05:35:44;;;;;;;7.40;5.60;;;;;;;11.36;66.02;95761.69;5054370;28;20191;-80
2023/04/12 05:38:11;;;;;;;6.37;5.70;;;;;;;11.51;65.84;95771.91;5089639;28;20593;-85
2023/04/12 05:40:39;;;;;;;6.93;5.53;;;;;;;11.51;66.24;95771.91;5070194;28;20612;-85
2023/04/12 05:43:11;;;;;;;7.30;5.63;;;;;;;11.51;65.30;95764.97;5071229;28;20239;-81
2023/04/12 05:45:39;;;;;;;12.50;6.50;;;;;;;11.57;64.84;95769.72;5073457;28;20686;-86
2023/04/12 05:48:07;;;;;;;7.00;5.90;;;;;;;11.63;65.29;95763.28;5089940;28;20667;-87
2023/04/12 05:50:34;;;;;;;7.23;5.97;;;;;;;11.61;64.48;95766.00;5071047;28;20194;-85
2023/04/12 05:53:02;;;;;;;8.43;5.93;;;;;;;11.63;64.11;95765.88;5071201;28;20372;-74
2023/04/12 05:55:31;;;;;;;9.40;5.87;;;;;;;11.53;64.21;95762.28;5073222;28;20204;-83
2023/04/12 05:58:00;;;;;;;7.07;6.07;;;;;;;11.62;63.93;95766.81;5071420;28;20207;-85
2023/04/12 06:00:28;;;;;;;9.73;6.10;;;;;;;11.66;64.37;95774.31;5072843;28;20212;-86
2023/04/12 06:02:57;;;;;;;6.67;5.87;;;;;;;11.69;64.34;95768.06;5077314;28;20697;-85
2023/04/12 06:05:24;;;;;;;9.50;6.43;;;;;;;11.71;64.23;95771.38;5077359;28;20585;-84
2023/04/12 06:07:51;;;;;;;7.87;6.50;;;;;;;11.75;64.46;95767.63;5072221;28;20598;-88
2023/04/12 06:10:18;;;;;;;7.27;6.50;;;;;;;11.69;64.59;95763.72;5054982;28;20197;-82
2023/04/12 06:12:49;;;;;;;8.83;7.17;;;;;;;11.70;64.89;95759.38;5089672;28;20677;-85
2023/04/12 06:15:19;;;;;;;7.83;6.57;;;;;;;11.71;65.02;95748.88;5072221;28;20185;-84
2023/04/12 06:17:51;;;;;;;9.03;6.83;;;;;;;11.85;64.40;95763.47;5072362;28;20192;-86
2023/04/12 06:20:19;;;;;;;10.33;6.97;;;;;;;11.86;63.91;95754.75;5088312;28;20271;-86
2023/04/12 06:22:46;;;;;;;9.87;6.67;;;;;;;11.89;64.38;95750.16;5087997;28;20315;-85
2023/04/12 06:25:15;;;;;;;13.57;7.30;;;;;;;11.91;64.11;95737.09;5073377;28;20213;-83
2023/04/12 06:27:45;;;;;;;9.27;7.17;;;;;;;11.99;64.61;95747.75;5077011;28;20345;-80
2023/04/12 06:30:14;;;;;;;10.70;7.53;;;;;;;12.02;63.99;95745.75;5075836;28;20191;-87
2023/04/12 06:32:42;;;;;;;10.60;7.40;;;;;;;12.01;64.30;95743.28;5077052;28;20673;-81
2023/04/12 06:35:10;;;;;;;11.00;7.13;;;;;;;12.03;64.26;95736.22;5083056;28;20184;-86
2023/04/12 06:37:37;;;;;;;9.73;7.07;;;;;;;12.02;63.37;95750.09;5097661;28;20200;-82
2023/04/12 06:40:05;;;;;;;11.17;7.10;;;;;;;12.01;63.29;95749.28;5074485;28;20181;-80
2023/04/12 06:42:32;;;;;;;9.17;7.30;;;;;;;12.08;63.15;95760.03;5090277;28;20193;-80
2023/04/12 06:44:59;;;;;;;10.03;7.30;;;;;;;12.06;63.65;95736.81;5076140;28;20261;-83
2023/04/12 06:47:26;;;;;;;9.03;6.70;;;;;;;12.11;62.64;95744.25;5057790;28;20260;-85
2023/04/12 06:49:55;;;;;;;8.30;6.30;;;;;;;12.02;62.14;95742.31;5094263;28;20285;-83
2023/04/12 06:52:26;;;;;;;9.80;7.20;;;;;;;12.18;62.08;95745.47;5091875;28;20247;-75
2023/04/12 06:54:55;;;;;;;8.80;6.10;;;;;;;11.96;62.29;95725.44;5093078;28;20240;-85
2023/04/12 06:57:23;;;;;;;7.03;6.33;;;;;;;12.17;62.53;95754.19;5090711;28;20275;-81
2023/04/12 06:59:50;;;;;;;8.57;6.63;;;;;;;12.20;63.21;95753.97;5088932;28;20277;-83
2023/04/12 07:02:17;;;;;;;11.63;7.20;;;;;;;12.17;63.39;95747.25;5092614;28;20189;-85
2023/04/12 07:04:45;;;;;;;8.23;6.60;;;;;;;12.21;63.33;95746.09;5090985;28;20198;-80
2023/04/12 07:07:12;;;;;;;7.57;6.17;;;;;;;12.24;63.00;95750.22;5091273;28;20221;-76
2023/04/12 07:09:39;;;;;;;8.57;6.30;;;;;;;12.21;62.65;95755.63;5098193;28;20272;-86
2023/04/12 07:12:15;;;;;;;8.73;6.10;;;;;;;12.16;61.95;95745.56;5080326;28;20210;-82
2023/04/12 07:14:42;;;;;;;6.67;5.97;;;;;;;11.82;62.43;95683.28;5053672;28;20315;-76
2023/04/12 07:17:10;;;;;;;6.80;5.37;;;;;;;12.23;61.07;95754.59;5093997;28;20277;-85
2023/04/12 07:19:38;;;;;;;7.10;5.80;;;;;;;12.37;61.38;95766.56;5073728;28;20266;-82
2023/04/12 07:22:05;;;;;;;8.90;5.60;;;;;;;12.11;62.50;95718.31;5090936;28;20235;-85
2023/04/12 07:24:32;;;;;;;8.67;6.40;;;;;;;11.88;62.25;95700.97;5074157;28;20182;-85
2023/04/12 07:26:59;;;;;;;7.37;5.57;;;;;;;12.23;60.99;95752.00;5070325;28;20261;-83
2023/04/12 07:29:26;;;;;;;13.63;4.87;;;;;;;12.10;61.31;95740.00;5071786;28;20196;-81
2023/04/12 07:31:54;;;;;;;7.90;5.57;;;;;;;12.21;61.38;95781.59;5071115;28;20688;-81
2023/04/12 07:34:21;;;;;;;9.27;5.80;;;;;;;12.31;62.55;95760.97;5088075;28;20758;-87
2023/04/12 07:36:48;;;;;;;7.93;5.30;;;;;;;12.37;62.42;95770.91;5090311;28;20250;-76
2023/04/12 07:39:16;;;;;;;8.07;5.13;;;;;;;12.32;61.13;95762.66;5093170;28;20344;-78
2023/04/12 07:41:45;;;;;;;6.87;4.63;;;;;;;12.21;61.03;95756.47;5091789;28;20185;-82
2023/04/12 07:44:13;;;;;;;5.70;4.40;;;;;;;12.14;60.96;95770.81;5091978;28;20181;-83
2023/04/12 07:46:40;;;;;;;8.13;4.83;;;;;;;12.12;62.43;95774.44;5096393;28;20241;-85
2023/04/12 07:49:09;;;;;;;6.90;4.50;;;;;;;12.07;62.09;95773.97;5097417;28;20329;-80
2023/04/12 07:51:37;;;;;;;7.27;5.03;;;;;;;12.03;61.94;95764.75;5093314;28;20257;-81
2023/04/12 07:54:05;;;;;;;5.67;4.03;;;;;;;11.88;60.58;95758.88;5072332;28;20619;-85
2023/04/12 07:56:34;;;;;;;5.40;3.60;;;;;;;11.75;61.03;95745.13;5060024;28;20194;-87
2023/04/12 07:59:01;;;;;;;7.60;4.00;;;;;;;11.84;60.66;95756.63;5093857;28;20287;-86
2023/04/12 08:01:29;;;;;;;7.00;4.27;;;;;;;12.00;60.51;95783.13;5107237;28;20207;-84
2023/04/12 08:03:56;;;;;;;5.63;3.87;;;;;;;11.93;60.35;95756.78;5096559;28;20187;-85
2023/04/12 08:06:24;;;;;;;6.17;3.70;;;;;;;12.05;60.82;95768.91;5100414;28;20218;-83
2023/04/12 08:08:54;;;;;;;4.90;3.53;;;;;;;12.01;60.11;95756.25;5073191;28;20681;-80
2023/04/12 08:11:21;;;;;;;4.03;3.30;;;;;;;11.97;60.99;95765.19;5072861;28;20178;-84
2023/04/12 08:13:48;;;;;;;6.00;3.80;;;;;;;12.00;60.83;95746.78;5093077;28;20569;-82
2023/04/12 08:16:15;;;;;;;3.60;2.70;;;;;;;12.17;61.17;95764.59;5095725;28;20284;-78
2023/04/12 08:18:42;;;;;;;5.33;3.10;;;;;;;12.20;60.49;95769.53;5092506;28;20200;-82
2023/04/12 08:21:09;;;;;;;3.83;2.93;;;;;;;12.03;61.09;95749.19;5094757;28;20200;-82
2023/04/12 08:23:37;;;;;;;4.87;3.10;;;;;;;12.10;59.72;95776.31;5094880;28;20199;-86
2023/04/12 08:26:04;;;;;;;4.40;3.50;;;;;;;11.99;60.29;95786.66;5072966;28;20212;-85
2023/04/12 08:28:32;;;;;;;4.70;2.60;;;;;;;11.98;60.27;95778.03;5073467;28;20753;-85
2023/04/12 08:30:59;;;;;;;4.50;3.43;;;;;;;11.84;61.01;95767.00;5073102;28;20193;-84
2023/04/12 08:33:27;;;;;;;6.43;2.73;;;;;;;11.93;59.92;95781.91;5096164;28;20196;-82
2023/04/12 08:35:54;;;;;;;3.73;3.23;;;;;;;11.76;60.63;95753.75;5083352;28;20548;-83
2023/04/12 08:38:21;;;;;;;4.93;3.07;;;;;;;11.88;61.61;95784.00;5095632;28;20230;-77
2023/04/12 08:41:07;;;;;;;5.00;2.90;;;;;;;11.87;61.53;95795.31;5090943;28;20698;-84
2023/04/12 08:43:36;;;;;;;5.87;2.53;;;;;;;11.84;60.94;95783.38;5094365;28;20190;-82
2023/04/12 08:46:04;;;;;;;6.07;3.53;;;;;;;12.14;61.06;95782.94;5090574;28;20253;-81
2023/04/12 08:48:31;;;;;;;3.53;2.80;;;;;;;12.15;60.15;95800.19;5072050;28;20739;-79
2023/04/12 08:50:59;;;;;;;3.80;2.77;;;;;;;12.02;60.36;95787.25;5071881;28;20196;-78
2023/04/12 08:53:26;;;;;;;3.40;2.87;;;;;;;12.25;60.99;95788.22;5094329;28;20189;-82
2023/04/12 08:55:53;;;;;;;4.57;3.20;;;;;;;12.32;60.53;95799.81;5093975;28;20181;-82
2023/04/12 08:58:21;;;;;;;3.17;2.60;;;;;;;12.16;60.28;95774.13;5090366;28;20703;-86
2023/04/12 09:00:49;;;;;;;3.17;2.23;;;;;;;12.26;60.98;95806.25;5091556;28;20241;-82
2023/04/12 09:03:16;;;;;;;3.63;2.17;;;;;;;12.25;60.10;95808.97;5096479;28;20600;-78
2023/04/12 09:05:44;;;;;;;5.80;3.83;;;;;;;11.97;60.07;95789.34;5095566;28;20192;-79
2023/04/12 09:08:11;;;;;;;4.67;3.13;;;;;;;12.03;59.13;95804.50;5089233;28;20256;-83
2023/04/12 09:10:38;;;;;;;3.80;2.97;;;;;;;12.08;59.28;95817.13;5088836;28;20266;-82
2023/04/12 09:13:05;;;;;;;3.30;2.47;;;;;;;12.18;58.40;95805.16;5091947;28;20197;-84
2023/04/12 09:15:33;;;;;;;3.30;2.30;;;;;;;12.08;59.30;95797.22;5099595;28;20186;-84
2023/04/12 09:18:06;;;;;;;2.90;2.60;;;;;;;12.23;59.93;95800.47;5092898;28;20297;-84
2023/04/12 09:20:37;;;;;;;3.93;2.50;;;;;;;12.24;59.00;95776.19;5092387;28;20214;-82
2023/04/12 09:23:19;;;;;;;2.60;2.20;;;;;;;12.47;58.27;95809.06;5072402;28;20217;-83
2023/04/12 09:25:49;;;;;;;3.97;2.27;;;;;;;12.41;57.75;95796.53;5056159;28;20247;-77
2023/04/12 09:28:19;;;;;;;3.00;2.20;;;;;;;12.55;57.17;95811.94;5089879;28;20227;-83
2023/04/12 09:30:50;;;;;;;4.23;2.60;;;;;;;12.64;55.46;95815.63;5074544;28;20207;-81
2023/04/12 09:33:31;;;;;;;4.60;2.33;;;;;;;12.43;54.67;95799.00;5092081;28;20189;-83
2023/04/12 09:36:04;;;;;;;2.17;1.90;;;;;;;12.41;54.40;95826.84;5092887;28;20210;-85
2023/04/12 09:38:33;;;;;;;4.90;2.60;;;;;;;12.41;53.62;95814.72;5074684;28;20653;-84
2023/04/12 09:41:30;;;;;;;8.57;3.60;;;;;;;12.27;54.43;95826.09;5095070;28;20182;-80
2023/04/12 09:43:58;;;;;;;7.67;5.43;;;;;;;12.32;54.93;95828.38;5070611;28;20232;-83
2023/04/12 09:46:26;;;;;;;4.57;2.60;;;;;;;11.97;54.31;95798.91;5105333;28;20234;-76
2023/04/12 09:48:57;;;;;;;2.27;1.87;;;;;;;12.02;54.53;95825.34;5070614;28;20557;-80
2023/04/12 09:51:28;;;;;;;4.67;2.80;;;;;;;12.14;54.64;95811.50;5088140;28;20215;-84
2023/04/12 09:53:58;;;;;;;7.17;3.03;;;;;;;12.31;54.28;95808.53;5089190;28;20624;-81
2023/04/12 09:56:36;;;;;;;5.83;3.13;;;;;;;12.57;54.24;95810.06;5093683;28;20219;-81
2023/04/12 09:59:05;;;;;;;2.53;2.23;;;;;;;12.73;52.53;95810.63;5090434;28;20189;-84
2023/04/12 10:01:35;;;;;;;3.33;2.13;;;;;;;12.70;52.87;95807.38;5088223;28;20280;-82
2023/04/12 10:04:05;;;;;;;3.33;2.10;;;;;;;12.62;51.91;95797.56;5071259;28;20196;-80
2023/04/12 10:06:33;;;;;;;5.70;2.00;;;;;;;12.87;51.79;95789.63;5069691;28;20188;-78
2023/04/12 10:09:05;;;;;;;3.93;2.07;;;;;;;13.06;51.66;95810.72;5086784;28;20225;-81
2023/04/12 10:11:32;;;;;;;1.97;1.57;;;;;;;13.24;51.63;95805.06;5086579;28;20211;-75
2023/04/12 10:14:04;;;;;;;2.57;2.17;;;;;;;13.06;51.85;95791.72;5087506;28;20189;-85
2023/04/12 10:16:39;;;;;;;2.73;1.80;;;;;;;13.11;50.67;95779.19;5069509;28;20197;-84
2023/04/12 10:19:07;;;;;;;2.90;1.97;;;;;;;13.11;49.95;95775.78;5087061;28;20216;-80
2023/04/12 10:21:34;;;;;;;2.47;1.63;;;;;;;13.07;51.06;95788.97;5070171;28;20831;-83
2023/04/12 10:24:02;;;;;;;2.23;1.90;;;;;;;13.10;50.96;95774.94;5087220;28;20188;-83
2023/04/12 10:26:29;;;;;;;2.17;1.80;;;;;;;13.11;51.28;95767.97;5087271;28;20192;-83
2023/04/12 10:29:25;;;;;;;4.13;2.30;;;;;;;13.59;50.79;95787.59;5084405;28;20259;-82
2023/04/12 10:32:19;;;;;;;2.73;1.73;;;;;;;13.73;49.41;95784.75;5068759;28;20209;-83
2023/04/12 10:34:55;;;;;;;2.70;1.97;;;;;;;13.73;49.50;95779.53;5080999;28;20206;-83
2023/04/12 10:37:57;;;;;;;2.37;1.80;;;;;;;13.83;48.10;95780.47;5066779;28;20238;-83
2023/04/12 10:40:24;;;;;;;4.33;2.27;;;;;;;13.70;48.83;95769.38;5072965;28;20192;-82
2023/04/12 10:43:27;;;;;;;4.93;2.80;;;;;;;13.94;49.34;95777.88;5069073;28;20199;-85
2023/04/12 10:45:55;;;;;;;6.73;3.27;;;;;;;14.04;48.74;95768.38;5003839;28;20205;-84
2023/04/12 10:48:28;;;;;;;4.77;2.60;;;;;;;14.17;47.97;95791.66;5040126;28;20227;-79
2023/04/12 10:51:25;;;;;;;4.50;3.00;;;;;;;14.02;48.20;95770.28;5068785;28;20211;-86
2023/04/12 10:54:08;;;;;;;5.67;3.23;;;;;;;14.06;48.85;95774.28;5071263;28;20184;-84
2023/04/12 10:56:46;;;;;;;4.07;2.90;;;;;;;14.00;48.52;95751.34;5088213;28;20557;-86
2023/04/12 10:59:24;;;;;;;2.93;2.30;;;;;;;14.16;48.01;95774.38;5070724;28;20192;-82
2023/04/12 11:02:06;;;;;;;2.50;2.00;;;;;;;14.22;47.79;95773.91;5093190;28;20256;-78
2023/04/12 11:04:34;;;;;;;4.23;2.00;;;;;;;14.21;46.54;95778.28;5080081;28;20196;-86
2023/04/12 11:07:10;;;;;;;2.07;1.87;;;;;;;14.39;46.39;95766.41;5056033;28;20582;-83
2023/04/12 11:09:41;;;;;;;2.67;1.80;;;;;;;14.23;45.89;95750.34;5066768;28;20261;-85
2023/04/12 11:12:25;;;;;;;3.07;1.70;;;;;;;14.26;46.24;95770.91;5058235;28;20276;-82
2023/04/12 11:14:59;;;;;;;4.10;2.17;;;;;;;14.14;46.90;95761.47;5078522;28;20252;-74
2023/04/12 11:17:34;;;;;;;3.63;2.30;;;;;;;14.29;46.71;95781.13;5063462;28;20201;-83
2023/04/12 11:20:04;;;;;;;2.40;1.70;;;;;;;14.21;45.37;95774.84;5071910;28;20211;-79
2023/04/12 11:22:31;;;;;;;3.87;2.10;;;;;;;14.10;45.51;95778.28;5070316;28;20658;-84
2023/04/12 11:25:01;;;;;;;2.10;1.87;;;;;;;14.10;45.78;95777.47;5052860;28;20691;-80
2023/04/12 11:27:30;;;;;;;2.60;2.03;;;;;;;14.26;44.81;95763.09;5085654;28;20263;-82
2023/04/12 11:29:59;;;;;;;5.17;2.20;;;;;;;14.16;45.55;95788.22;5090794;28;20241;-80
2023/04/12 11:32:30;;;;;;;3.33;2.30;;;;;;;14.18;45.47;95770.69;5090908;28;20277;-81
2023/04/12 11:34:57;;;;;;;1.70;1.60;;;;;;;14.27;44.18;95767.38;5077072;28;20193;-83
2023/04/12 11:37:30;;;;;;;2.23;1.63;;;;;;;14.38;43.83;95766.53;5073477;28;20209;-81
2023/04/12 11:39:58;;;;;;;4.30;1.53;;;;;;;14.20;42.00;95750.56;5072689;28;20712;-80
2023/04/12 11:42:27;;;;;;;1.60;1.50;;;;;;;14.30;42.46;95753.31;5090581;28;20597;-80
2023/04/12 11:44:55;;;;;;;6.97;2.50;;;;;;;14.45;43.22;95736.41;5106205;28;20214;-81
2023/04/12 11:47:26;;;;;;;2.10;1.70;;;;;;;14.48;42.92;95744.81;5092467;28;20683;-83
2023/04/12 11:49:56;;;;;;;3.90;2.10;;;;;;;14.69;42.87;95758.69;5072625;28;20217;-81
2023/04/12 11:52:31;;;;;;;1.83;1.73;;;;;;;14.95;42.33;95759.13;5091125;28;20214;-81